Streeter, North Dakota
Current Conditions -  °F | °C
As of 1:56 AM on Monday 26 Jan 2015 (Local Time) from KJMS Reporting Station
Broken Clouds Broken Clouds  
Wind Chill: 28°   Ceiling: 11000
Heat Index: 39°   Visibility: 10mi
Dew Point: 32°   Wind: 23mph
Humidity: 76%   Direction: 300°WNW
Pressure: 29.68"   Gusts: 30mph
Location:  46.66°N, 99.35°W
Report Text: KJMS 260756Z AUTO 30020G26KT 10SM BKN110 04/00 A2968 RMK AO2 PK WND 30027/0723 SLP068 T00390000
Loading
Personal Weather Stations






























Interactive Weather Map New forecast layout! Learn more

10-Day Weather Forecast

Advertisements
Track Severe Weather on mobile